sensor_id;sensor_type;location;lat;lon;timestamp;temperature;humidity
48328;DHT22;34136;51.022;7.082;2022-11-15T00:00:07;10.90;16.40
48328;DHT22;34136;51.022;7.082;2022-11-15T00:03:17;10.90;16.10
48328;DHT22;34136;51.022;7.082;2022-11-15T00:06:22;10.90;16.30
48328;DHT22;34136;51.022;7.082;2022-11-15T00:09:27;10.90;16.20
48328;DHT22;34136;51.022;7.082;2022-11-15T00:12:31;11.00;16.30
48328;DHT22;34136;51.022;7.082;2022-11-15T00:15:38;11.00;16.20
48328;DHT22;34136;51.022;7.082;2022-11-15T00:18:43;11.00;16.40
48328;DHT22;34136;51.022;7.082;2022-11-15T00:21:48;11.10;16.80
48328;DHT22;34136;51.022;7.082;2022-11-15T00:24:52;11.20;16.60
48328;DHT22;34136;51.022;7.082;2022-11-15T00:27:58;11.20;16.40
48328;DHT22;34136;51.022;7.082;2022-11-15T00:31:05;11.30;16.10
48328;DHT22;34136;51.022;7.082;2022-11-15T00:34:11;11.40;15.80
48328;DHT22;34136;51.022;7.082;2022-11-15T00:37:15;11.40;15.80
48328;DHT22;34136;51.022;7.082;2022-11-15T00:40:20;11.40;16.30
48328;DHT22;34136;51.022;7.082;2022-11-15T00:43:24;11.50;15.70
48328;DHT22;34136;51.022;7.082;2022-11-15T00:46:29;11.50;15.80
48328;DHT22;34136;51.022;7.082;2022-11-15T00:49:33;11.60;15.60
48328;DHT22;34136;51.022;7.082;2022-11-15T00:52:38;11.70;15.20
48328;DHT22;34136;51.022;7.082;2022-11-15T00:55:43;11.70;15.10
48328;DHT22;34136;51.022;7.082;2022-11-15T00:58:47;11.70;14.90
48328;DHT22;34136;51.022;7.082;2022-11-15T01:01:52;11.80;14.90
48328;DHT22;34136;51.022;7.082;2022-11-15T01:04:57;11.80;14.80
48328;DHT22;34136;51.022;7.082;2022-11-15T01:08:02;11.80;14.50
48328;DHT22;34136;51.022;7.082;2022-11-15T01:11:09;11.80;14.60
48328;DHT22;34136;51.022;7.082;2022-11-15T01:14:14;11.80;14.30
48328;DHT22;34136;51.022;7.082;2022-11-15T01:17:19;11.90;14.50
48328;DHT22;34136;51.022;7.082;2022-11-15T01:20:24;11.90;14.20
48328;DHT22;34136;51.022;7.082;2022-11-15T01:23:29;11.90;14.50
48328;DHT22;34136;51.022;7.082;2022-11-15T01:26:34;11.90;14.10
48328;DHT22;34136;51.022;7.082;2022-11-15T01:29:39;12.00;14.00
48328;DHT22;34136;51.022;7.082;2022-11-15T01:32:43;12.00;14.00
48328;DHT22;34136;51.022;7.082;2022-11-15T01:35:48;12.00;14.10
48328;DHT22;34136;51.022;7.082;2022-11-15T01:38:54;12.00;14.20
48328;DHT22;34136;51.022;7.082;2022-11-15T01:41:59;12.00;14.20
48328;DHT22;34136;51.022;7.082;2022-11-15T01:45:05;12.00;14.10
48328;DHT22;34136;51.022;7.082;2022-11-15T01:48:11;12.00;14.00
48328;DHT22;34136;51.022;7.082;2022-11-15T01:51:17;12.10;14.10
48328;DHT22;34136;51.022;7.082;2022-11-15T01:54:24;12.10;14.10
48328;DHT22;34136;51.022;7.082;2022-11-15T01:57:29;12.10;13.90
48328;DHT22;34136;51.022;7.082;2022-11-15T02:00:34;12.10;13.90
48328;DHT22;34136;51.022;7.082;2022-11-15T02:03:56;12.10;14.00
48328;DHT22;34136;51.022;7.082;2022-11-15T02:07:04;12.10;14.00
48328;DHT22;34136;51.022;7.082;2022-11-15T02:10:13;12.10;13.90
48328;DHT22;34136;51.022;7.082;2022-11-15T02:13:18;12.20;13.70
48328;DHT22;34136;51.022;7.082;2022-11-15T02:20:20;12.20;13.70
48328;DHT22;34136;51.022;7.082;2022-11-15T02:30:45;12.10;14.00
48328;DHT22;34136;51.022;7.082;2022-11-15T02:34:19;12.20;14.00
48328;DHT22;34136;51.022;7.082;2022-11-15T02:37:57;12.20;13.90
48328;DHT22;34136;51.022;7.082;2022-11-15T02:41:09;12.10;14.20
48328;DHT22;34136;51.022;7.082;2022-11-15T02:44:38;12.10;14.40
48328;DHT22;34136;51.022;7.082;2022-11-15T02:47:46;12.20;14.10
48328;DHT22;34136;51.022;7.082;2022-11-15T02:50:54;12.20;14.30
48328;DHT22;34136;51.022;7.082;2022-11-15T02:53:59;12.20;14.40
48328;DHT22;34136;51.022;7.082;2022-11-15T02:57:07;12.20;13.90
48328;DHT22;34136;51.022;7.082;2022-11-15T03:00:20;12.20;14.40
48328;DHT22;34136;51.022;7.082;2022-11-15T03:07:11;12.30;14.50
48328;DHT22;34136;51.022;7.082;2022-11-15T03:10:36;12.30;14.30
48328;DHT22;34136;51.022;7.082;2022-11-15T03:20:25;12.40;14.10
48328;DHT22;34136;51.022;7.082;2022-11-15T03:23:31;12.40;13.90
48328;DHT22;34136;51.022;7.082;2022-11-15T03:26:38;12.30;14.00
48328;DHT22;34136;51.022;7.082;2022-11-15T03:29:59;12.30;14.00
48328;DHT22;34136;51.022;7.082;2022-11-15T03:33:06;12.40;13.90
48328;DHT22;34136;51.022;7.082;2022-11-15T03:36:12;12.40;13.50
48328;DHT22;34136;51.022;7.082;2022-11-15T03:39:17;12.40;13.50
48328;DHT22;34136;51.022;7.082;2022-11-15T03:42:32;12.40;13.60
48328;DHT22;34136;51.022;7.082;2022-11-15T03:45:48;12.40;13.50
48328;DHT22;34136;51.022;7.082;2022-11-15T03:49:10;12.40;13.60
48328;DHT22;34136;51.022;7.082;2022-11-15T03:52:20;12.40;13.50
48328;DHT22;34136;51.022;7.082;2022-11-15T03:55:26;12.40;13.50
48328;DHT22;34136;51.022;7.082;2022-11-15T03:58:32;12.50;13.20
48328;DHT22;34136;51.022;7.082;2022-11-15T04:01:37;12.40;13.40
48328;DHT22;34136;51.022;7.082;2022-11-15T04:04:42;12.40;13.50
48328;DHT22;34136;51.022;7.082;2022-11-15T04:07:47;12.40;13.40
48328;DHT22;34136;51.022;7.082;2022-11-15T04:10:53;12.50;13.40
48328;DHT22;34136;51.022;7.082;2022-11-15T04:13:58;12.50;13.30
48328;DHT22;34136;51.022;7.082;2022-11-15T04:17:03;12.50;13.10
48328;DHT22;34136;51.022;7.082;2022-11-15T04:20:11;12.50;13.10
48328;DHT22;34136;51.022;7.082;2022-11-15T04:23:21;12.50;13.00
48328;DHT22;34136;51.022;7.082;2022-11-15T04:26:26;12.50;13.60
48328;DHT22;34136;51.022;7.082;2022-11-15T04:29:31;12.50;12.90
48328;DHT22;34136;51.022;7.082;2022-11-15T04:32:36;12.50;12.80
48328;DHT22;34136;51.022;7.082;2022-11-15T04:35:42;12.50;12.90
48328;DHT22;34136;51.022;7.082;2022-11-15T04:38:47;12.60;12.90
48328;DHT22;34136;51.022;7.082;2022-11-15T04:41:51;12.60;12.90
48328;DHT22;34136;51.022;7.082;2022-11-15T04:44:57;12.60;12.70
48328;DHT22;34136;51.022;7.082;2022-11-15T04:48:01;12.50;12.60
48328;DHT22;34136;51.022;7.082;2022-11-15T04:51:06;12.60;12.60
48328;DHT22;34136;51.022;7.082;2022-11-15T07:03:45;11.70;14.00
48328;DHT22;34136;51.022;7.082;2022-11-15T07:06:50;11.80;14.00
48328;DHT22;34136;51.022;7.082;2022-11-15T07:09:55;11.70;13.60
48328;DHT22;34136;51.022;7.082;2022-11-15T07:13:00;11.70;13.50
48328;DHT22;34136;51.022;7.082;2022-11-15T07:16:07;11.70;13.00
48328;DHT22;34136;51.022;7.082;2022-11-15T07:19:12;11.70;12.80
48328;DHT22;34136;51.022;7.082;2022-11-15T07:22:17;11.70;12.50
48328;DHT22;34136;51.022;7.082;2022-11-15T07:25:23;11.70;12.20
48328;DHT22;34136;51.022;7.082;2022-11-15T07:28:27;11.70;12.40
48328;DHT22;34136;51.022;7.082;2022-11-15T07:31:32;11.60;12.40
48328;DHT22;34136;51.022;7.082;2022-11-15T07:34:37;11.60;12.50
48328;DHT22;34136;51.022;7.082;2022-11-15T07:37:41;11.50;12.70
48328;DHT22;34136;51.022;7.082;2022-11-15T07:40:47;11.50;12.80
48328;DHT22;34136;51.022;7.082;2022-11-15T07:44:00;11.50;12.70
48328;DHT22;34136;51.022;7.082;2022-11-15T07:47:05;11.60;12.40
48328;DHT22;34136;51.022;7.082;2022-11-15T07:50:10;11.60;12.20
48328;DHT22;34136;51.022;7.082;2022-11-15T07:53:14;11.50;12.20
48328;DHT22;34136;51.022;7.082;2022-11-15T07:56:19;11.50;11.90
48328;DHT22;34136;51.022;7.082;2022-11-15T07:59:24;11.50;11.70
48328;DHT22;34136;51.022;7.082;2022-11-15T08:02:29;11.60;11.50
48328;DHT22;34136;51.022;7.082;2022-11-15T08:05:35;11.60;11.10
48328;DHT22;34136;51.022;7.082;2022-11-15T08:08:40;11.70;10.80
48328;DHT22;34136;51.022;7.082;2022-11-15T08:11:45;11.60;10.60
48328;DHT22;34136;51.022;7.082;2022-11-15T08:14:49;11.70;10.30
48328;DHT22;34136;51.022;7.082;2022-11-15T08:17:55;11.60;10.50
48328;DHT22;34136;51.022;7.082;2022-11-15T08:21:01;11.70;10.40
48328;DHT22;34136;51.022;7.082;2022-11-15T08:24:07;11.70;10.10
48328;DHT22;34136;51.022;7.082;2022-11-15T08:27:12;11.70;9.90
48328;DHT22;34136;51.022;7.082;2022-11-15T08:30:17;11.70;9.50
48328;DHT22;34136;51.022;7.082;2022-11-15T08:33:22;11.80;9.30
48328;DHT22;34136;51.022;7.082;2022-11-15T08:36:27;11.80;8.90
48328;DHT22;34136;51.022;7.082;2022-11-15T08:39:32;11.90;8.80
48328;DHT22;34136;51.022;7.082;2022-11-15T08:42:37;11.90;8.70
48328;DHT22;34136;51.022;7.082;2022-11-15T08:45:42;11.90;7.30
48328;DHT22;34136;51.022;7.082;2022-11-15T08:48:47;11.90;7.80
48328;DHT22;34136;51.022;7.082;2022-11-15T08:51:53;11.90;7.10
48328;DHT22;34136;51.022;7.082;2022-11-15T08:54:57;11.90;7.00
48328;DHT22;34136;51.022;7.082;2022-11-15T08:58:03;12.00;6.60
48328;DHT22;34136;51.022;7.082;2022-11-15T09:01:16;12.00;6.20
48328;DHT22;34136;51.022;7.082;2022-11-15T09:04:20;12.10;6.00
48328;DHT22;34136;51.022;7.082;2022-11-15T09:07:25;12.10;5.20
48328;DHT22;34136;51.022;7.082;2022-11-15T09:10:30;12.30;4.60
48328;DHT22;34136;51.022;7.082;2022-11-15T09:13:35;12.30;4.60
48328;DHT22;34136;51.022;7.082;2022-11-15T09:16:40;12.40;4.40
48328;DHT22;34136;51.022;7.082;2022-11-15T09:19:45;12.50;3.90
48328;DHT22;34136;51.022;7.082;2022-11-15T09:22:50;12.50;3.50
48328;DHT22;34136;51.022;7.082;2022-11-15T09:26:00;12.50;3.60
48328;DHT22;34136;51.022;7.082;2022-11-15T09:29:04;12.60;3.50
48328;DHT22;34136;51.022;7.082;2022-11-15T09:32:09;12.60;2.70
48328;DHT22;34136;51.022;7.082;2022-11-15T09:35:13;12.60;2.00
48328;DHT22;34136;51.022;7.082;2022-11-15T09:38:19;12.70;1.00
48328;DHT22;34136;51.022;7.082;2022-11-15T09:41:36;12.80;1.10
48328;DHT22;34136;51.022;7.082;2022-11-15T09:51:53;12.90;1.00
48328;DHT22;34136;51.022;7.082;2022-11-15T09:54:47;12.90;1.00
48328;DHT22;34136;51.022;7.082;2022-11-15T09:57:57;12.90;1.00
48328;DHT22;34136;51.022;7.082;2022-11-15T10:00:48;13.00;1.00
48328;DHT22;34136;51.022;7.082;2022-11-15T10:03:38;13.10;1.00
48328;DHT22;34136;51.022;7.082;2022-11-15T10:06:26;13.10;1.00
48328;DHT22;34136;51.022;7.082;2022-11-15T10:09:16;13.10;1.00
48328;DHT22;34136;51.022;7.082;2022-11-15T10:12:07;13.10;1.00
48328;DHT22;34136;51.022;7.082;2022-11-15T10:15:05;13.10;1.00
48328;DHT22;34136;51.022;7.082;2022-11-15T10:18:06;13.20;1.00
48328;DHT22;34136;51.022;7.082;2022-11-15T10:20:58;13.30;1.00
48328;DHT22;34136;51.022;7.082;2022-11-15T10:23:45;13.30;1.00
48328;DHT22;34136;51.022;7.082;2022-11-15T10:26:31;13.50;1.00
48328;DHT22;34136;51.022;7.082;2022-11-15T10:29:22;13.50;1.00
48328;DHT22;34136;51.022;7.082;2022-11-15T10:32:11;13.50;1.00
48328;DHT22;34136;51.022;7.082;2022-11-15T10:34:57;13.60;1.00
48328;DHT22;34136;51.022;7.082;2022-11-15T10:37:44;13.60;1.00
48328;DHT22;34136;51.022;7.082;2022-11-15T10:40:30;13.60;1.00
48328;DHT22;34136;51.022;7.082;2022-11-15T10:43:18;13.70;1.00
48328;DHT22;34136;51.022;7.082;2022-11-15T10:46:22;13.90;1.00
48328;DHT22;34136;51.022;7.082;2022-11-15T10:52:17;14.00;1.00
48328;DHT22;34136;51.022;7.082;2022-11-15T10:55:26;14.10;1.00
48328;DHT22;34136;51.022;7.082;2022-11-15T10:58:37;14.20;1.00
48328;DHT22;34136;51.022;7.082;2022-11-15T11:01:28;14.20;1.00
48328;DHT22;34136;51.022;7.082;2022-11-15T11:04:15;14.30;1.00
48328;DHT22;34136;51.022;7.082;2022-11-15T11:07:01;14.20;1.00
48328;DHT22;34136;51.022;7.082;2022-11-15T13:12:49;15.10;1.00
48328;DHT22;34136;51.022;7.082;2022-11-15T13:15:55;14.90;1.00
48328;DHT22;34136;51.022;7.082;2022-11-15T13:19:01;14.80;1.00
48328;DHT22;34136;51.022;7.082;2022-11-15T13:21:49;14.70;1.00
48328;DHT22;34136;51.022;7.082;2022-11-15T13:24:38;14.70;1.00
48328;DHT22;34136;51.022;7.082;2022-11-15T13:27:24;14.70;1.00
48328;DHT22;34136;51.022;7.082;2022-11-15T13:30:23;14.80;1.00
48328;DHT22;34136;51.022;7.082;2022-11-15T13:36:15;14.80;1.00
48328;DHT22;34136;51.022;7.082;2022-11-15T13:39:33;14.70;1.00
48328;DHT22;34136;51.022;7.082;2022-11-15T13:42:20;14.70;1.00
48328;DHT22;34136;51.022;7.082;2022-11-15T13:45:13;14.70;1.00
48328;DHT22;34136;51.022;7.082;2022-11-15T13:48:03;14.80;1.00
48328;DHT22;34136;51.022;7.082;2022-11-15T13:50:49;14.70;1.00
48328;DHT22;34136;51.022;7.082;2022-11-15T13:53:38;14.70;1.00
48328;DHT22;34136;51.022;7.082;2022-11-15T13:56:27;14.70;1.00
48328;DHT22;34136;51.022;7.082;2022-11-15T13:59:28;14.60;1.00
48328;DHT22;34136;51.022;7.082;2022-11-15T14:02:25;14.70;1.00
48328;DHT22;34136;51.022;7.082;2022-11-15T14:05:30;14.70;1.00
48328;DHT22;34136;51.022;7.082;2022-11-15T14:14:13;14.80;1.00
48328;DHT22;34136;51.022;7.082;2022-11-15T14:17:00;14.70;1.00
48328;DHT22;34136;51.022;7.082;2022-11-15T14:19:46;14.70;1.00
48328;DHT22;34136;51.022;7.082;2022-11-15T14:22:32;14.80;1.00
48328;DHT22;34136;51.022;7.082;2022-11-15T14:25:38;14.80;1.00
